createdAt,value
2022-09-28T00:15:31.809Z,8.75
2022-09-28T00:35:31.766Z,8.74
2022-09-28T01:15:31.798Z,8.36
2022-09-28T02:35:31.770Z,8.14
2022-09-28T02:55:31.767Z,8.14
2022-09-28T03:15:31.828Z,8.18
2022-09-28T03:35:31.806Z,8.19
2022-09-28T03:55:31.757Z,8.14
2022-09-28T04:15:31.777Z,8.1
2022-09-28T04:55:31.779Z,8.01
2022-09-28T05:15:31.782Z,8.05
2022-09-28T05:35:31.777Z,8.08
2022-09-28T05:55:31.896Z,8.15
2022-09-28T06:15:31.782Z,8.26
2022-09-28T06:35:31.757Z,8.41
2022-09-28T06:55:31.788Z,8.5
2022-09-28T07:15:31.757Z,8.56
2022-09-28T07:35:31.765Z,8.6
2022-09-28T07:55:31.803Z,8.66
2022-09-28T08:15:31.810Z,8.77
2022-09-28T08:55:31.787Z,9.14
2022-09-28T09:15:31.762Z,9.27
2022-09-28T09:35:31.775Z,9.55
2022-09-28T09:55:31.808Z,9.72
2022-09-28T10:35:31.762Z,10.48
2022-09-28T10:55:31.757Z,10.61
2022-09-28T11:15:31.751Z,11.08
2022-09-28T11:35:31.743Z,11.33
2022-09-28T11:55:31.729Z,11.28
2022-09-28T12:35:31.732Z,11.53
2022-09-28T12:55:31.725Z,11.65
2022-09-28T13:15:31.791Z,11.58
2022-09-28T13:35:31.734Z,11.66
2022-09-28T14:35:31.710Z,12.29
2022-09-28T14:55:31.711Z,12.2
2022-09-28T15:15:31.759Z,12.11
2022-09-28T15:35:31.702Z,12.09
2022-09-28T15:55:31.706Z,12.09
2022-09-28T16:15:31.796Z,11.9
2022-09-28T16:35:31.686Z,11.58
2022-09-28T16:55:40.784Z,11.39
2022-09-28T17:15:31.775Z,11.09
2022-09-28T17:35:33.270Z,10.92
2022-09-28T17:55:31.667Z,10.71
2022-09-28T18:35:31.674Z,10.31
2022-09-28T18:55:31.656Z,10.03
2022-09-28T19:15:31.723Z,9.85
2022-09-28T19:35:31.691Z,9.7
2022-09-28T19:55:31.685Z,9.49
2022-09-28T20:15:31.680Z,9.24
2022-09-28T20:35:33.296Z,9
2022-09-28T20:55:31.685Z,8.77
2022-09-28T21:15:31.719Z,8.71
2022-09-28T21:35:31.657Z,8.75
2022-09-28T21:55:31.642Z,8.63
2022-09-28T22:15:31.636Z,8.47
2022-09-28T22:35:31.657Z,8.22
2022-09-28T22:55:31.681Z,7.98
2022-09-28T23:15:31.656Z,7.94
2022-09-28T23:35:31.646Z,7.85
2022-09-28T23:55:31.650Z,7.82
